sensor_id;sensor_type;location;lat;lon;timestamp;temperature;humidity
42907;DHT22;28552;51.146;6.576;2023-03-01T00:00:37;-1.40;99.90
42907;DHT22;28552;51.146;6.576;2023-03-01T00:03:38;-1.40;99.90
42907;DHT22;28552;51.146;6.576;2023-03-01T00:06:38;-1.30;99.90
42907;DHT22;28552;51.146;6.576;2023-03-01T00:09:39;-1.40;99.90
42907;DHT22;28552;51.146;6.576;2023-03-01T00:12:40;-1.40;99.90
42907;DHT22;28552;51.146;6.576;2023-03-01T00:15:41;-1.40;99.90
42907;DHT22;28552;51.146;6.576;2023-03-01T00:18:42;-1.40;99.90
42907;DHT22;28552;51.146;6.576;2023-03-01T00:21:42;-1.40;99.90
42907;DHT22;28552;51.146;6.576;2023-03-01T00:24:43;-1.40;99.90
42907;DHT22;28552;51.146;6.576;2023-03-01T00:27:43;-1.40;99.90
42907;DHT22;28552;51.146;6.576;2023-03-01T00:30:44;-1.40;99.90
42907;DHT22;28552;51.146;6.576;2023-03-01T00:33:45;-1.30;99.90
42907;DHT22;28552;51.146;6.576;2023-03-01T00:36:46;-1.30;99.90
42907;DHT22;28552;51.146;6.576;2023-03-01T00:39:47;-1.30;99.90
42907;DHT22;28552;51.146;6.576;2023-03-01T00:42:48;-1.30;99.90
42907;DHT22;28552;51.146;6.576;2023-03-01T00:45:48;-1.40;99.90
42907;DHT22;28552;51.146;6.576;2023-03-01T00:48:49;-1.40;99.90
42907;DHT22;28552;51.146;6.576;2023-03-01T00:51:50;-1.40;99.90
42907;DHT22;28552;51.146;6.576;2023-03-01T00:54:52;-1.50;99.90
42907;DHT22;28552;51.146;6.576;2023-03-01T00:57:53;-1.60;99.90
42907;DHT22;28552;51.146;6.576;2023-03-01T01:00:53;-1.60;99.90
42907;DHT22;28552;51.146;6.576;2023-03-01T01:03:56;-1.70;99.90
42907;DHT22;28552;51.146;6.576;2023-03-01T01:06:57;-1.80;99.90
42907;DHT22;28552;51.146;6.576;2023-03-01T01:09:58;-1.80;99.90
42907;DHT22;28552;51.146;6.576;2023-03-01T01:12:58;-1.80;99.90
42907;DHT22;28552;51.146;6.576;2023-03-01T01:16:01;-1.90;99.90
42907;DHT22;28552;51.146;6.576;2023-03-01T01:19:02;-1.90;99.90
42907;DHT22;28552;51.146;6.576;2023-03-01T01:22:03;-1.80;99.90
42907;DHT22;28552;51.146;6.576;2023-03-01T01:25:04;-1.80;99.90
42907;DHT22;28552;51.146;6.576;2023-03-01T01:28:04;-1.80;99.90
42907;DHT22;28552;51.146;6.576;2023-03-01T01:31:05;-1.80;99.90
42907;DHT22;28552;51.146;6.576;2023-03-01T01:34:08;-1.80;99.90
42907;DHT22;28552;51.146;6.576;2023-03-01T01:37:11;-1.70;99.90
42907;DHT22;28552;51.146;6.576;2023-03-01T01:40:12;-1.70;99.90
42907;DHT22;28552;51.146;6.576;2023-03-01T01:43:20;-1.80;99.90
42907;DHT22;28552;51.146;6.576;2023-03-01T01:46:30;-1.80;99.90
42907;DHT22;28552;51.146;6.576;2023-03-01T01:49:37;-1.90;99.90
42907;DHT22;28552;51.146;6.576;2023-03-01T01:52:38;-2.00;99.90
42907;DHT22;28552;51.146;6.576;2023-03-01T01:55:42;-2.10;99.90
42907;DHT22;28552;51.146;6.576;2023-03-01T01:58:43;-2.10;99.90
42907;DHT22;28552;51.146;6.576;2023-03-01T02:01:44;-2.20;99.90
42907;DHT22;28552;51.146;6.576;2023-03-01T02:04:47;-2.20;99.90
42907;DHT22;28552;51.146;6.576;2023-03-01T02:07:48;-2.20;99.90
42907;DHT22;28552;51.146;6.576;2023-03-01T02:10:50;-2.20;99.90
42907;DHT22;28552;51.146;6.576;2023-03-01T02:13:53;-2.20;99.90
42907;DHT22;28552;51.146;6.576;2023-03-01T02:16:54;-2.20;99.90
42907;DHT22;28552;51.146;6.576;2023-03-01T02:22:55;-2.20;99.90
42907;DHT22;28552;51.146;6.576;2023-03-01T02:26:10;-2.20;99.90
42907;DHT22;28552;51.146;6.576;2023-03-01T02:29:14;-2.20;99.90
42907;DHT22;28552;51.146;6.576;2023-03-01T02:32:15;-2.20;99.90
42907;DHT22;28552;51.146;6.576;2023-03-01T02:35:17;-2.20;99.90
42907;DHT22;28552;51.146;6.576;2023-03-01T02:38:19;-2.20;99.90
42907;DHT22;28552;51.146;6.576;2023-03-01T02:41:21;-2.20;99.90
42907;DHT22;28552;51.146;6.576;2023-03-01T02:44:23;-2.20;99.90
42907;DHT22;28552;51.146;6.576;2023-03-01T02:47:23;-2.20;99.90
42907;DHT22;28552;51.146;6.576;2023-03-01T02:50:47;-2.30;99.90
42907;DHT22;28552;51.146;6.576;2023-03-01T02:57:28;-2.30;99.90
42907;DHT22;28552;51.146;6.576;2023-03-01T03:00:34;-2.30;99.90
42907;DHT22;28552;51.146;6.576;2023-03-01T03:03:36;-2.30;99.90
42907;DHT22;28552;51.146;6.576;2023-03-01T03:06:36;-2.40;99.90
42907;DHT22;28552;51.146;6.576;2023-03-01T03:09:37;-2.40;99.90
42907;DHT22;28552;51.146;6.576;2023-03-01T03:12:38;-2.40;99.90
42907;DHT22;28552;51.146;6.576;2023-03-01T03:15:40;-2.40;99.90
42907;DHT22;28552;51.146;6.576;2023-03-01T03:18:40;-2.50;99.90
42907;DHT22;28552;51.146;6.576;2023-03-01T03:21:41;-2.50;99.90
42907;DHT22;28552;51.146;6.576;2023-03-01T03:24:41;-2.50;99.90
42907;DHT22;28552;51.146;6.576;2023-03-01T03:27:44;-2.50;99.90
42907;DHT22;28552;51.146;6.576;2023-03-01T03:30:45;-2.50;99.90
42907;DHT22;28552;51.146;6.576;2023-03-01T03:33:47;-2.40;99.90
42907;DHT22;28552;51.146;6.576;2023-03-01T03:36:47;-2.40;99.90
42907;DHT22;28552;51.146;6.576;2023-03-01T03:39:48;-2.40;99.90
42907;DHT22;28552;51.146;6.576;2023-03-01T03:42:48;-2.50;99.90
42907;DHT22;28552;51.146;6.576;2023-03-01T03:45:50;-2.50;99.90
42907;DHT22;28552;51.146;6.576;2023-03-01T03:48:51;-2.60;99.90
42907;DHT22;28552;51.146;6.576;2023-03-01T03:51:51;-2.60;99.90
42907;DHT22;28552;51.146;6.576;2023-03-01T03:54:52;-2.60;99.90
42907;DHT22;28552;51.146;6.576;2023-03-01T03:57:52;-2.60;99.90
42907;DHT22;28552;51.146;6.576;2023-03-01T04:00:56;-2.60;99.90
42907;DHT22;28552;51.146;6.576;2023-03-01T04:03:57;-2.50;99.90
42907;DHT22;28552;51.146;6.576;2023-03-01T04:07:04;-2.60;99.90
42907;DHT22;28552;51.146;6.576;2023-03-01T04:10:06;-2.60;99.90
42907;DHT22;28552;51.146;6.576;2023-03-01T04:13:11;-2.70;99.90
42907;DHT22;28552;51.146;6.576;2023-03-01T04:16:12;-2.70;99.90
42907;DHT22;28552;51.146;6.576;2023-03-01T04:19:12;-2.80;99.90
42907;DHT22;28552;51.146;6.576;2023-03-01T04:22:15;-2.80;99.90
42907;DHT22;28552;51.146;6.576;2023-03-01T04:25:18;-2.90;99.90
42907;DHT22;28552;51.146;6.576;2023-03-01T04:28:23;-2.90;99.90
42907;DHT22;28552;51.146;6.576;2023-03-01T04:31:24;-2.90;99.90
42907;DHT22;28552;51.146;6.576;2023-03-01T04:34:25;-2.90;99.90
42907;DHT22;28552;51.146;6.576;2023-03-01T04:37:27;-2.90;99.90
42907;DHT22;28552;51.146;6.576;2023-03-01T04:40:27;-2.90;99.90
42907;DHT22;28552;51.146;6.576;2023-03-01T04:43:28;-2.90;99.90
42907;DHT22;28552;51.146;6.576;2023-03-01T04:46:28;-3.00;99.90
42907;DHT22;28552;51.146;6.576;2023-03-01T04:49:29;-3.00;99.90
42907;DHT22;28552;51.146;6.576;2023-03-01T04:52:29;-3.00;99.90
42907;DHT22;28552;51.146;6.576;2023-03-01T04:55:30;-3.00;99.90
42907;DHT22;28552;51.146;6.576;2023-03-01T04:58:31;-3.00;99.90
42907;DHT22;28552;51.146;6.576;2023-03-01T05:01:32;-3.00;99.90
42907;DHT22;28552;51.146;6.576;2023-03-01T05:04:33;-3.00;99.90
42907;DHT22;28552;51.146;6.576;2023-03-01T05:07:33;-3.00;99.90
42907;DHT22;28552;51.146;6.576;2023-03-01T05:10:35;-3.00;99.90
42907;DHT22;28552;51.146;6.576;2023-03-01T05:13:37;-3.00;99.90
42907;DHT22;28552;51.146;6.576;2023-03-01T05:16:38;-3.00;99.90
42907;DHT22;28552;51.146;6.576;2023-03-01T05:19:38;-3.00;99.90
42907;DHT22;28552;51.146;6.576;2023-03-01T05:22:39;-3.00;99.90
42907;DHT22;28552;51.146;6.576;2023-03-01T05:25:39;-3.00;99.90
42907;DHT22;28552;51.146;6.576;2023-03-01T05:28:40;-3.00;99.90
42907;DHT22;28552;51.146;6.576;2023-03-01T05:31:41;-3.00;99.90
42907;DHT22;28552;51.146;6.576;2023-03-01T05:34:43;-3.00;99.90
42907;DHT22;28552;51.146;6.576;2023-03-01T05:37:46;-3.00;99.90
42907;DHT22;28552;51.146;6.576;2023-03-01T05:40:48;-3.00;99.90
42907;DHT22;28552;51.146;6.576;2023-03-01T05:43:48;-3.10;99.90
42907;DHT22;28552;51.146;6.576;2023-03-01T05:46:49;-3.10;99.90
42907;DHT22;28552;51.146;6.576;2023-03-01T05:49:49;-3.10;99.90
42907;DHT22;28552;51.146;6.576;2023-03-01T05:56:08;-3.20;99.90
42907;DHT22;28552;51.146;6.576;2023-03-01T05:59:08;-3.30;99.90
42907;DHT22;28552;51.146;6.576;2023-03-01T06:02:09;-3.30;99.90
42907;DHT22;28552;51.146;6.576;2023-03-01T06:05:12;-3.30;99.90
42907;DHT22;28552;51.146;6.576;2023-03-01T06:08:13;-3.30;99.90
42907;DHT22;28552;51.146;6.576;2023-03-01T06:11:13;-3.40;99.90
42907;DHT22;28552;51.146;6.576;2023-03-01T06:14:14;-3.30;99.90
42907;DHT22;28552;51.146;6.576;2023-03-01T06:17:14;-3.40;99.90
42907;DHT22;28552;51.146;6.576;2023-03-01T06:20:19;-3.30;99.90
42907;DHT22;28552;51.146;6.576;2023-03-01T06:23:19;-3.40;99.90
42907;DHT22;28552;51.146;6.576;2023-03-01T06:26:20;-3.30;99.90
42907;DHT22;28552;51.146;6.576;2023-03-01T06:29:21;-3.40;99.90
42907;DHT22;28552;51.146;6.576;2023-03-01T06:32:22;-3.40;99.90
42907;DHT22;28552;51.146;6.576;2023-03-01T06:35:23;-3.30;99.90
42907;DHT22;28552;51.146;6.576;2023-03-01T06:38:24;-3.40;99.90
42907;DHT22;28552;51.146;6.576;2023-03-01T06:41:24;-3.30;99.90
42907;DHT22;28552;51.146;6.576;2023-03-01T06:44:25;-3.30;99.90
42907;DHT22;28552;51.146;6.576;2023-03-01T06:47:25;-3.30;99.90
42907;DHT22;28552;51.146;6.576;2023-03-01T06:50:26;-3.30;99.90
42907;DHT22;28552;51.146;6.576;2023-03-01T06:53:28;-3.30;99.90
42907;DHT22;28552;51.146;6.576;2023-03-01T06:56:29;-3.30;99.90
42907;DHT22;28552;51.146;6.576;2023-03-01T06:59:30;-3.30;99.90
42907;DHT22;28552;51.146;6.576;2023-03-01T07:02:31;-3.30;99.90
42907;DHT22;28552;51.146;6.576;2023-03-01T07:05:33;-3.30;99.90
42907;DHT22;28552;51.146;6.576;2023-03-01T07:08:33;-3.20;99.90
42907;DHT22;28552;51.146;6.576;2023-03-01T07:11:34;-3.20;99.90
42907;DHT22;28552;51.146;6.576;2023-03-01T07:14:35;-3.10;99.90
42907;DHT22;28552;51.146;6.576;2023-03-01T07:17:35;-2.90;99.90
42907;DHT22;28552;51.146;6.576;2023-03-01T07:20:36;-2.70;99.90
42907;DHT22;28552;51.146;6.576;2023-03-01T07:23:36;-2.50;99.90
42907;DHT22;28552;51.146;6.576;2023-03-01T07:26:37;-2.30;99.90
42907;DHT22;28552;51.146;6.576;2023-03-01T07:29:38;-2.10;99.90
42907;DHT22;28552;51.146;6.576;2023-03-01T07:32:38;-2.00;99.90
42907;DHT22;28552;51.146;6.576;2023-03-01T07:35:39;-1.80;99.90
42907;DHT22;28552;51.146;6.576;2023-03-01T07:38:39;-1.60;99.90
42907;DHT22;28552;51.146;6.576;2023-03-01T07:41:40;-1.40;99.90
42907;DHT22;28552;51.146;6.576;2023-03-01T07:44:40;-1.20;99.90
42907;DHT22;28552;51.146;6.576;2023-03-01T07:47:41;-0.90;99.90
42907;DHT22;28552;51.146;6.576;2023-03-01T07:50:41;-0.70;99.90
42907;DHT22;28552;51.146;6.576;2023-03-01T07:53:45;-0.40;99.90
42907;DHT22;28552;51.146;6.576;2023-03-01T07:56:45;-0.10;99.90
42907;DHT22;28552;51.146;6.576;2023-03-01T07:59:46;0.20;99.90
42907;DHT22;28552;51.146;6.576;2023-03-01T08:02:46;0.60;99.90
42907;DHT22;28552;51.146;6.576;2023-03-01T08:05:47;0.90;99.90
42907;DHT22;28552;51.146;6.576;2023-03-01T08:08:47;1.30;99.90
42907;DHT22;28552;51.146;6.576;2023-03-01T08:11:48;1.60;99.90
42907;DHT22;28552;51.146;6.576;2023-03-01T08:14:49;1.90;99.90
42907;DHT22;28552;51.146;6.576;2023-03-01T08:17:49;2.10;99.90
42907;DHT22;28552;51.146;6.576;2023-03-01T08:20:50;2.00;99.90
42907;DHT22;28552;51.146;6.576;2023-03-01T08:23:51;1.70;99.90
42907;DHT22;28552;51.146;6.576;2023-03-01T08:26:52;1.20;99.90
42907;DHT22;28552;51.146;6.576;2023-03-01T08:29:52;0.90;99.90
42907;DHT22;28552;51.146;6.576;2023-03-01T08:32:53;0.60;99.90
42907;DHT22;28552;51.146;6.576;2023-03-01T08:36:02;0.40;99.90
42907;DHT22;28552;51.146;6.576;2023-03-01T08:39:04;0.20;99.90
42907;DHT22;28552;51.146;6.576;2023-03-01T08:42:05;0.20;99.90
42907;DHT22;28552;51.146;6.576;2023-03-01T08:45:06;0.10;99.90
42907;DHT22;28552;51.146;6.576;2023-03-01T08:48:07;0.00;99.90
42907;DHT22;28552;51.146;6.576;2023-03-01T08:54:13;0.00;99.90
42907;DHT22;28552;51.146;6.576;2023-03-01T08:57:15;0.00;99.90
42907;DHT22;28552;51.146;6.576;2023-03-01T09:00:15;0.10;99.90
42907;DHT22;28552;51.146;6.576;2023-03-01T09:03:17;0.10;99.90
42907;DHT22;28552;51.146;6.576;2023-03-01T09:06:18;0.10;99.90
42907;DHT22;28552;51.146;6.576;2023-03-01T09:09:19;0.20;99.90
42907;DHT22;28552;51.146;6.576;2023-03-01T09:12:20;0.20;99.90
42907;DHT22;28552;51.146;6.576;2023-03-01T09:15:20;0.30;99.90
42907;DHT22;28552;51.146;6.576;2023-03-01T09:18:21;0.40;99.90
42907;DHT22;28552;51.146;6.576;2023-03-01T09:21:23;0.50;99.90
42907;DHT22;28552;51.146;6.576;2023-03-01T09:24:24;0.60;99.90
42907;DHT22;28552;51.146;6.576;2023-03-01T09:27:25;0.70;99.90
42907;DHT22;28552;51.146;6.576;2023-03-01T09:30:26;0.80;99.90
42907;DHT22;28552;51.146;6.576;2023-03-01T09:33:28;0.90;99.90
42907;DHT22;28552;51.146;6.576;2023-03-01T09:36:28;1.10;99.90
42907;DHT22;28552;51.146;6.576;2023-03-01T09:39:29;1.30;99.90
42907;DHT22;28552;51.146;6.576;2023-03-01T09:42:32;1.40;99.90
42907;DHT22;28552;51.146;6.576;2023-03-01T09:45:35;1.60;99.90
42907;DHT22;28552;51.146;6.576;2023-03-01T09:48:42;1.70;99.90
42907;DHT22;28552;51.146;6.576;2023-03-01T09:51:54;1.90;99.90
42907;DHT22;28552;51.146;6.576;2023-03-01T09:54:55;1.90;99.90
42907;DHT22;28552;51.146;6.576;2023-03-01T09:58:00;2.10;99.90
42907;DHT22;28552;51.146;6.576;2023-03-01T10:04:46;2.30;99.90
42907;DHT22;28552;51.146;6.576;2023-03-01T10:08:06;2.40;99.90
42907;DHT22;28552;51.146;6.576;2023-03-01T10:11:21;2.50;99.90
42907;DHT22;28552;51.146;6.576;2023-03-01T10:21:05;2.80;99.90
42907;DHT22;28552;51.146;6.576;2023-03-01T10:24:15;2.90;99.90
42907;DHT22;28552;51.146;6.576;2023-03-01T10:27:23;3.00;99.90
42907;DHT22;28552;51.146;6.576;2023-03-01T10:30:39;3.10;99.90
42907;DHT22;28552;51.146;6.576;2023-03-01T10:33:41;3.10;99.90
42907;DHT22;28552;51.146;6.576;2023-03-01T10:36:45;3.20;99.90
42907;DHT22;28552;51.146;6.576;2023-03-01T10:40:04;3.20;99.90
42907;DHT22;28552;51.146;6.576;2023-03-01T10:43:12;3.30;99.90
42907;DHT22;28552;51.146;6.576;2023-03-01T10:46:29;3.30;99.90
42907;DHT22;28552;51.146;6.576;2023-03-01T10:49:30;3.30;99.90
42907;DHT22;28552;51.146;6.576;2023-03-01T10:52:41;3.30;99.90
42907;DHT22;28552;51.146;6.576;2023-03-01T10:55:41;3.50;99.90
42907;DHT22;28552;51.146;6.576;2023-03-01T10:58:58;3.60;99.90
42907;DHT22;28552;51.146;6.576;2023-03-01T11:05:17;3.80;99.90
42907;DHT22;28552;51.146;6.576;2023-03-01T11:08:36;3.90;99.90
42907;DHT22;28552;51.146;6.576;2023-03-01T11:11:37;3.90;99.90
42907;DHT22;28552;51.146;6.576;2023-03-01T11:14:38;4.00;99.90
42907;DHT22;28552;51.146;6.576;2023-03-01T11:17:45;4.10;99.90
42907;DHT22;28552;51.146;6.576;2023-03-01T11:20:46;4.10;99.90
42907;DHT22;28552;51.146;6.576;2023-03-01T11:23:47;4.20;99.90
42907;DHT22;28552;51.146;6.576;2023-03-01T11:26:53;4.20;99.90
42907;DHT22;28552;51.146;6.576;2023-03-01T11:33:13;4.40;99.90
42907;DHT22;28552;51.146;6.576;2023-03-01T11:36:32;4.40;99.90
42907;DHT22;28552;51.146;6.576;2023-03-01T11:39:43;4.50;99.90
42907;DHT22;28552;51.146;6.576;2023-03-01T11:46:29;4.70;99.90
42907;DHT22;28552;51.146;6.576;2023-03-01T11:49:43;4.80;99.90
42907;DHT22;28552;51.146;6.576;2023-03-01T11:52:55;4.80;99.90
42907;DHT22;28552;51.146;6.576;2023-03-01T11:56:12;4.80;99.90
42907;DHT22;28552;51.146;6.576;2023-03-01T11:59:28;4.80;99.90
42907;DHT22;28552;51.146;6.576;2023-03-01T12:06:31;5.00;99.90
42907;DHT22;28552;51.146;6.576;2023-03-01T12:09:53;5.10;99.90
42907;DHT22;28552;51.146;6.576;2023-03-01T12:40:10;5.40;99.90
42907;DHT22;28552;51.146;6.576;2023-03-01T12:47:00;5.60;99.90
42907;DHT22;28552;51.146;6.576;2023-03-01T12:50:13;5.70;99.90
42907;DHT22;28552;51.146;6.576;2023-03-01T12:53:30;5.70;99.90
42907;DHT22;28552;51.146;6.576;2023-03-01T12:56:34;5.70;99.90
42907;DHT22;28552;51.146;6.576;2023-03-01T13:00:00;5.80;99.90
42907;DHT22;28552;51.146;6.576;2023-03-01T13:03:27;5.80;99.90
42907;DHT22;28552;51.146;6.576;2023-03-01T13:15:49;6.00;98.90
42907;DHT22;28552;51.146;6.576;2023-03-01T13:19:07;6.10;99.10
42907;DHT22;28552;51.146;6.576;2023-03-01T13:22:26;6.10;99.00
42907;DHT22;28552;51.146;6.576;2023-03-01T13:25:28;6.10;98.90
42907;DHT22;28552;51.146;6.576;2023-03-01T13:28:50;6.20;98.80
42907;DHT22;28552;51.146;6.576;2023-03-01T13:34:55;6.20;98.70
42907;DHT22;28552;51.146;6.576;2023-03-01T13:41:52;6.30;98.30
42907;DHT22;28552;51.146;6.576;2023-03-01T13:44:53;6.30;98.10
42907;DHT22;28552;51.146;6.576;2023-03-01T13:47:58;6.40;98.00
42907;DHT22;28552;51.146;6.576;2023-03-01T13:51:02;6.40;98.20
42907;DHT22;28552;51.146;6.576;2023-03-01T13:54:04;6.40;97.90
42907;DHT22;28552;51.146;6.576;2023-03-01T13:57:04;6.40;97.70
42907;DHT22;28552;51.146;6.576;2023-03-01T14:00:24;6.40;97.40
42907;DHT22;28552;51.146;6.576;2023-03-01T14:03:25;6.40;97.00
42907;DHT22;28552;51.146;6.576;2023-03-01T14:06:28;6.50;96.90
42907;DHT22;28552;51.146;6.576;2023-03-01T14:09:29;6.50;97.10
42907;DHT22;28552;51.146;6.576;2023-03-01T14:12:44;6.50;96.60
42907;DHT22;28552;51.146;6.576;2023-03-01T14:16:06;6.50;96.40
42907;DHT22;28552;51.146;6.576;2023-03-01T14:19:21;6.60;96.30
42907;DHT22;28552;51.146;6.576;2023-03-01T14:22:26;6.60;96.40
42907;DHT22;28552;51.146;6.576;2023-03-01T14:25:31;6.60;97.30
42907;DHT22;28552;51.146;6.576;2023-03-01T14:28:33;6.70;97.00
42907;DHT22;28552;51.146;6.576;2023-03-01T14:31:38;6.80;97.20
42907;DHT22;28552;51.146;6.576;2023-03-01T14:34:43;6.90;96.40
42907;DHT22;28552;51.146;6.576;2023-03-01T14:37:44;6.90;95.70
42907;DHT22;28552;51.146;6.576;2023-03-01T14:40:45;6.90;96.70
42907;DHT22;28552;51.146;6.576;2023-03-01T14:43:47;6.90;95.80
42907;DHT22;28552;51.146;6.576;2023-03-01T14:46:53;6.90;95.80
42907;DHT22;28552;51.146;6.576;2023-03-01T14:53:21;6.90;95.90
42907;DHT22;28552;51.146;6.576;2023-03-01T14:56:22;6.90;95.70
42907;DHT22;28552;51.146;6.576;2023-03-01T14:59:23;6.90;95.50
42907;DHT22;28552;51.146;6.576;2023-03-01T15:02:26;6.90;95.90
42907;DHT22;28552;51.146;6.576;2023-03-01T15:05:30;6.90;95.70
42907;DHT22;28552;51.146;6.576;2023-03-01T15:08:31;6.90;96.00
42907;DHT22;28552;51.146;6.576;2023-03-01T15:11:34;6.90;96.20
42907;DHT22;28552;51.146;6.576;2023-03-01T15:14:42;6.90;96.10
42907;DHT22;28552;51.146;6.576;2023-03-01T15:17:42;6.80;96.20
42907;DHT22;28552;51.146;6.576;2023-03-01T15:20:43;6.80;96.20
42907;DHT22;28552;51.146;6.576;2023-03-01T15:23:50;6.70;95.70
42907;DHT22;28552;51.146;6.576;2023-03-01T15:26:59;6.70;96.10
42907;DHT22;28552;51.146;6.576;2023-03-01T15:30:13;6.70;96.10
42907;DHT22;28552;51.146;6.576;2023-03-01T15:33:31;6.70;96.10
42907;DHT22;28552;51.146;6.576;2023-03-01T15:39:40;6.60;96.60
42907;DHT22;28552;51.146;6.576;2023-03-01T15:42:43;6.60;96.50
42907;DHT22;28552;51.146;6.576;2023-03-01T15:45:43;6.60;96.50
42907;DHT22;28552;51.146;6.576;2023-03-01T15:48:54;6.60;96.50
42907;DHT22;28552;51.146;6.576;2023-03-01T15:51:56;6.50;96.50
42907;DHT22;28552;51.146;6.576;2023-03-01T15:54:59;6.50;96.50
42907;DHT22;28552;51.146;6.576;2023-03-01T15:58:04;6.50;96.80
42907;DHT22;28552;51.146;6.576;2023-03-01T16:01:13;6.40;97.00
42907;DHT22;28552;51.146;6.576;2023-03-01T16:04:16;6.40;96.70
42907;DHT22;28552;51.146;6.576;2023-03-01T16:07:21;6.40;96.40
42907;DHT22;28552;51.146;6.576;2023-03-01T16:10:22;6.40;96.50
42907;DHT22;28552;51.146;6.576;2023-03-01T16:13:23;6.30;96.90
42907;DHT22;28552;51.146;6.576;2023-03-01T16:16:25;6.30;96.60
42907;DHT22;28552;51.146;6.576;2023-03-01T16:19:25;6.20;96.10
42907;DHT22;28552;51.146;6.576;2023-03-01T16:22:26;6.20;95.90
42907;DHT22;28552;51.146;6.576;2023-03-01T16:25:27;6.10;95.90
42907;DHT22;28552;51.146;6.576;2023-03-01T16:28:28;6.00;96.10
42907;DHT22;28552;51.146;6.576;2023-03-01T16:31:29;5.90;96.20
42907;DHT22;28552;51.146;6.576;2023-03-01T16:34:29;5.90;96.10
42907;DHT22;28552;51.146;6.576;2023-03-01T16:37:32;5.80;96.40
42907;DHT22;28552;51.146;6.576;2023-03-01T16:40:33;5.70;96.80
42907;DHT22;28552;51.146;6.576;2023-03-01T16:43:33;5.60;97.40
42907;DHT22;28552;51.146;6.576;2023-03-01T16:46:34;5.50;97.50
42907;DHT22;28552;51.146;6.576;2023-03-01T16:49:35;5.40;97.30
42907;DHT22;28552;51.146;6.576;2023-03-01T16:52:36;5.30;97.00
42907;DHT22;28552;51.146;6.576;2023-03-01T16:55:36;5.20;97.00
42907;DHT22;28552;51.146;6.576;2023-03-01T16:58:39;5.10;96.90
42907;DHT22;28552;51.146;6.576;2023-03-01T17:01:39;4.90;97.10
42907;DHT22;28552;51.146;6.576;2023-03-01T17:04:41;4.80;97.30
42907;DHT22;28552;51.146;6.576;2023-03-01T17:07:41;4.70;97.60
42907;DHT22;28552;51.146;6.576;2023-03-01T17:10:42;4.60;97.70
42907;DHT22;28552;51.146;6.576;2023-03-01T17:13:44;4.50;98.00
42907;DHT22;28552;51.146;6.576;2023-03-01T17:16:45;4.30;98.30
42907;DHT22;28552;51.146;6.576;2023-03-01T17:19:46;4.20;98.50
42907;DHT22;28552;51.146;6.576;2023-03-01T17:22:47;4.10;98.50
42907;DHT22;28552;51.146;6.576;2023-03-01T17:25:47;4.10;98.60
42907;DHT22;28552;51.146;6.576;2023-03-01T17:28:48;4.00;98.70
42907;DHT22;28552;51.146;6.576;2023-03-01T17:31:51;3.90;99.00
42907;DHT22;28552;51.146;6.576;2023-03-01T17:34:54;3.80;99.30
42907;DHT22;28552;51.146;6.576;2023-03-01T17:37:54;3.70;99.60
42907;DHT22;28552;51.146;6.576;2023-03-01T17:40:58;3.60;99.90
42907;DHT22;28552;51.146;6.576;2023-03-01T17:43:59;3.50;99.90
42907;DHT22;28552;51.146;6.576;2023-03-01T17:47:00;3.40;99.90
42907;DHT22;28552;51.146;6.576;2023-03-01T17:50:01;3.30;99.90
42907;DHT22;28552;51.146;6.576;2023-03-01T17:53:03;3.20;99.90
42907;DHT22;28552;51.146;6.576;2023-03-01T17:56:08;3.10;99.90
42907;DHT22;28552;51.146;6.576;2023-03-01T17:59:09;3.10;99.90
42907;DHT22;28552;51.146;6.576;2023-03-01T18:02:11;3.00;99.90
42907;DHT22;28552;51.146;6.576;2023-03-01T18:05:12;3.00;99.90
42907;DHT22;28552;51.146;6.576;2023-03-01T18:08:13;2.90;99.90
42907;DHT22;28552;51.146;6.576;2023-03-01T18:11:13;2.90;99.90
42907;DHT22;28552;51.146;6.576;2023-03-01T18:14:14;2.80;99.90
42907;DHT22;28552;51.146;6.576;2023-03-01T18:17:14;2.80;99.90
42907;DHT22;28552;51.146;6.576;2023-03-01T18:20:15;2.90;99.90
42907;DHT22;28552;51.146;6.576;2023-03-01T18:23:17;2.90;99.90
42907;DHT22;28552;51.146;6.576;2023-03-01T18:26:17;3.00;99.90
42907;DHT22;28552;51.146;6.576;2023-03-01T18:29:21;2.90;99.90
42907;DHT22;28552;51.146;6.576;2023-03-01T18:32:22;2.90;99.90
42907;DHT22;28552;51.146;6.576;2023-03-01T18:35:23;2.90;99.90
42907;DHT22;28552;51.146;6.576;2023-03-01T18:38:23;2.80;99.90
42907;DHT22;28552;51.146;6.576;2023-03-01T18:41:26;2.80;99.90
42907;DHT22;28552;51.146;6.576;2023-03-01T18:44:27;2.70;99.90
42907;DHT22;28552;51.146;6.576;2023-03-01T18:47:27;2.70;99.90
42907;DHT22;28552;51.146;6.576;2023-03-01T18:50:28;2.80;99.90
42907;DHT22;28552;51.146;6.576;2023-03-01T18:53:28;2.70;99.90
42907;DHT22;28552;51.146;6.576;2023-03-01T18:56:30;2.80;99.90
42907;DHT22;28552;51.146;6.576;2023-03-01T18:59:31;2.70;99.90
42907;DHT22;28552;51.146;6.576;2023-03-01T19:02:32;2.70;99.90
42907;DHT22;28552;51.146;6.576;2023-03-01T19:05:32;2.70;99.90
42907;DHT22;28552;51.146;6.576;2023-03-01T19:08:33;2.60;99.90
42907;DHT22;28552;51.146;6.576;2023-03-01T19:11:34;2.60;99.90
42907;DHT22;28552;51.146;6.576;2023-03-01T19:14:34;2.50;99.90
42907;DHT22;28552;51.146;6.576;2023-03-01T19:17:35;2.40;99.90
42907;DHT22;28552;51.146;6.576;2023-03-01T19:20:35;2.30;99.90
42907;DHT22;28552;51.146;6.576;2023-03-01T19:23:37;2.20;99.90
42907;DHT22;28552;51.146;6.576;2023-03-01T19:26:38;2.20;99.90
42907;DHT22;28552;51.146;6.576;2023-03-01T19:29:41;2.10;99.90
42907;DHT22;28552;51.146;6.576;2023-03-01T19:32:41;2.00;99.90
42907;DHT22;28552;51.146;6.576;2023-03-01T19:35:42;1.90;99.90
42907;DHT22;28552;51.146;6.576;2023-03-01T19:38:42;1.90;99.90
42907;DHT22;28552;51.146;6.576;2023-03-01T19:41:43;1.70;99.90
42907;DHT22;28552;51.146;6.576;2023-03-01T19:44:44;1.70;99.90
42907;DHT22;28552;51.146;6.576;2023-03-01T19:47:46;1.60;99.90
42907;DHT22;28552;51.146;6.576;2023-03-01T19:50:47;1.50;99.90
42907;DHT22;28552;51.146;6.576;2023-03-01T19:53:48;1.40;99.90
42907;DHT22;28552;51.146;6.576;2023-03-01T19:56:49;1.30;99.90
42907;DHT22;28552;51.146;6.576;2023-03-01T19:59:50;1.20;99.90
42907;DHT22;28552;51.146;6.576;2023-03-01T20:02:51;1.20;99.90
42907;DHT22;28552;51.146;6.576;2023-03-01T20:05:51;1.20;99.90
42907;DHT22;28552;51.146;6.576;2023-03-01T20:08:52;1.10;99.90
42907;DHT22;28552;51.146;6.576;2023-03-01T20:11:52;1.00;99.90
42907;DHT22;28552;51.146;6.576;2023-03-01T20:14:53;1.00;99.90
42907;DHT22;28552;51.146;6.576;2023-03-01T20:17:56;1.00;99.90
42907;DHT22;28552;51.146;6.576;2023-03-01T20:20:57;0.90;99.90
42907;DHT22;28552;51.146;6.576;2023-03-01T20:23:59;0.90;99.90
42907;DHT22;28552;51.146;6.576;2023-03-01T20:27:00;0.90;99.90
42907;DHT22;28552;51.146;6.576;2023-03-01T20:30:01;0.90;99.90
42907;DHT22;28552;51.146;6.576;2023-03-01T20:33:01;0.80;99.90
42907;DHT22;28552;51.146;6.576;2023-03-01T20:36:03;0.80;99.90
42907;DHT22;28552;51.146;6.576;2023-03-01T20:39:03;0.80;99.90
42907;DHT22;28552;51.146;6.576;2023-03-01T20:42:05;0.80;99.90
42907;DHT22;28552;51.146;6.576;2023-03-01T20:45:07;0.80;99.90
42907;DHT22;28552;51.146;6.576;2023-03-01T20:48:07;0.90;99.90
42907;DHT22;28552;51.146;6.576;2023-03-01T20:51:08;0.90;99.90
42907;DHT22;28552;51.146;6.576;2023-03-01T20:54:09;0.90;99.90
42907;DHT22;28552;51.146;6.576;2023-03-01T20:57:10;0.90;99.90